sensor_id;sensor_type;location;lat;lon;timestamp;pressure;altitude;pressure_sealevel;temperature;humidity
73332;BME280;61560;33.718;73.040;2023-05-29T00:01:04;94392.63;;;25.96;43.85
73332;BME280;61560;33.718;73.040;2023-05-29T00:03:33;94405.88;;;25.95;44.05
73332;BME280;61560;33.718;73.040;2023-05-29T00:06:02;94399.78;;;25.91;44.51
73332;BME280;61560;33.718;73.040;2023-05-29T00:08:29;94413.59;;;25.89;44.36
73332;BME280;61560;33.718;73.040;2023-05-29T00:10:56;94417.91;;;25.90;44.66
73332;BME280;61560;33.718;73.040;2023-05-29T00:13:24;94428.41;;;25.84;44.69
73332;BME280;61560;33.718;73.040;2023-05-29T00:15:51;94411.84;;;25.81;44.92
73332;BME280;61560;33.718;73.040;2023-05-29T00:18:18;94424.09;;;25.83;45.55
73332;BME280;61560;33.718;73.040;2023-05-29T00:20:45;94428.63;;;25.86;45.50
73332;BME280;61560;33.718;73.040;2023-05-29T00:23:12;94424.03;;;25.89;46.29
73332;BME280;61560;33.718;73.040;2023-05-29T00:25:39;94423.25;;;25.94;45.86
73332;BME280;61560;33.718;73.040;2023-05-29T00:28:08;94426.78;;;25.94;46.30
73332;BME280;61560;33.718;73.040;2023-05-29T00:30:35;94436.50;;;25.93;46.20
73332;BME280;61560;33.718;73.040;2023-05-29T00:33:03;94441.13;;;25.91;46.13
73332;BME280;61560;33.718;73.040;2023-05-29T00:35:30;94445.97;;;25.90;46.53
73332;BME280;61560;33.718;73.040;2023-05-29T00:37:58;94450.84;;;25.90;46.12
73332;BME280;61560;33.718;73.040;2023-05-29T00:40:25;94456.44;;;25.90;46.38
73332;BME280;61560;33.718;73.040;2023-05-29T00:42:52;94474.50;;;25.94;46.63
73332;BME280;61560;33.718;73.040;2023-05-29T00:45:19;94469.66;;;25.95;46.98
73332;BME280;61560;33.718;73.040;2023-05-29T00:47:47;94477.59;;;25.91;46.84
73332;BME280;61560;33.718;73.040;2023-05-29T00:50:14;94471.97;;;25.91;46.74
73332;BME280;61560;33.718;73.040;2023-05-29T00:52:42;94470.72;;;25.92;46.15
73332;BME280;61560;33.718;73.040;2023-05-29T00:55:10;94477.56;;;25.96;45.95
73332;BME280;61560;33.718;73.040;2023-05-29T00:57:37;94479.13;;;25.92;45.77
73332;BME280;61560;33.718;73.040;2023-05-29T01:00:06;94472.94;;;25.99;45.90
73332;BME280;61560;33.718;73.040;2023-05-29T01:02:40;94477.78;;;26.04;45.80
73332;BME280;61560;33.718;73.040;2023-05-29T01:05:13;94475.47;;;26.08;45.41
73332;BME280;61560;33.718;73.040;2023-05-29T01:07:44;94482.53;;;26.20;44.76
73332;BME280;61560;33.718;73.040;2023-05-29T01:10:12;94480.66;;;26.28;45.12
73332;BME280;61560;33.718;73.040;2023-05-29T01:12:57;94480.06;;;26.41;44.25
73332;BME280;61560;33.718;73.040;2023-05-29T01:18:23;94472.19;;;26.63;43.20
73332;BME280;61560;33.718;73.040;2023-05-29T01:21:57;94476.25;;;26.92;42.94
73332;BME280;61560;33.718;73.040;2023-05-29T01:24:26;94474.63;;;27.45;41.62
73332;BME280;61560;33.718;73.040;2023-05-29T01:27:09;94480.47;;;28.21;41.31
73332;BME280;61560;33.718;73.040;2023-05-29T01:29:39;94492.88;;;28.76;40.93
73332;BME280;61560;33.718;73.040;2023-05-29T01:32:07;94491.94;;;29.13;39.44
73332;BME280;61560;33.718;73.040;2023-05-29T01:34:34;94504.22;;;29.29;38.97
73332;BME280;61560;33.718;73.040;2023-05-29T01:37:01;94510.41;;;29.40;38.75
73332;BME280;61560;33.718;73.040;2023-05-29T01:39:31;94506.69;;;29.58;38.76
73332;BME280;61560;33.718;73.040;2023-05-29T01:42:00;94506.59;;;29.77;38.58
73332;BME280;61560;33.718;73.040;2023-05-29T01:44:29;94495.22;;;30.03;38.61
73332;BME280;61560;33.718;73.040;2023-05-29T01:46:56;94502.09;;;30.28;38.15
73332;BME280;61560;33.718;73.040;2023-05-29T01:49:25;94501.66;;;30.37;38.23
73332;BME280;61560;33.718;73.040;2023-05-29T01:51:53;94503.66;;;30.50;37.13
73332;BME280;61560;33.718;73.040;2023-05-29T01:54:20;94499.34;;;30.77;36.15
73332;BME280;61560;33.718;73.040;2023-05-29T01:56:48;94500.59;;;31.10;36.04
73332;BME280;61560;33.718;73.040;2023-05-29T01:59:16;94501.13;;;31.36;35.21
73332;BME280;61560;33.718;73.040;2023-05-29T02:01:43;94496.78;;;31.64;33.82
73332;BME280;61560;33.718;73.040;2023-05-29T02:04:10;94492.97;;;31.89;33.41
73332;BME280;61560;33.718;73.040;2023-05-29T02:06:37;94493.78;;;32.12;33.14
73332;BME280;61560;33.718;73.040;2023-05-29T02:09:04;94490.66;;;32.39;33.17
73332;BME280;61560;33.718;73.040;2023-05-29T02:11:33;94502.66;;;32.67;32.77
73332;BME280;61560;33.718;73.040;2023-05-29T02:14:00;94498.09;;;32.87;32.99
73332;BME280;61560;33.718;73.040;2023-05-29T02:16:28;94501.53;;;33.16;32.63
73332;BME280;61560;33.718;73.040;2023-05-29T02:18:55;94500.00;;;33.30;32.53
73332;BME280;61560;33.718;73.040;2023-05-29T02:21:24;94507.19;;;33.53;31.31
73332;BME280;61560;33.718;73.040;2023-05-29T02:23:50;94506.03;;;33.64;32.01
73332;BME280;61560;33.718;73.040;2023-05-29T02:26:17;94512.25;;;33.70;31.48
73332;BME280;61560;33.718;73.040;2023-05-29T02:28:44;94502.53;;;33.88;31.48
73332;BME280;61560;33.718;73.040;2023-05-29T02:31:12;94511.22;;;34.05;31.83
73332;BME280;61560;33.718;73.040;2023-05-29T02:33:38;94514.91;;;34.23;31.33
73332;BME280;61560;33.718;73.040;2023-05-29T02:36:06;94510.72;;;34.31;30.74
73332;BME280;61560;33.718;73.040;2023-05-29T02:38:36;94517.06;;;34.54;30.23
73332;BME280;61560;33.718;73.040;2023-05-29T02:41:03;94504.06;;;34.69;29.79
73332;BME280;61560;33.718;73.040;2023-05-29T02:43:31;94499.78;;;34.85;30.32
73332;BME280;61560;33.718;73.040;2023-05-29T02:45:57;94506.41;;;34.87;29.02
73332;BME280;61560;33.718;73.040;2023-05-29T02:48:25;94511.75;;;35.08;29.27
73332;BME280;61560;33.718;73.040;2023-05-29T02:50:52;94517.47;;;35.25;28.46
73332;BME280;61560;33.718;73.040;2023-05-29T02:53:19;94514.81;;;35.27;28.15
73332;BME280;61560;33.718;73.040;2023-05-29T02:55:46;94526.50;;;35.38;28.22
73332;BME280;61560;33.718;73.040;2023-05-29T02:58:14;94531.66;;;35.57;27.23
73332;BME280;61560;33.718;73.040;2023-05-29T03:00:43;94530.06;;;35.64;26.63
73332;BME280;61560;33.718;73.040;2023-05-29T03:03:10;94546.66;;;35.58;27.75
73332;BME280;61560;33.718;73.040;2023-05-29T03:05:38;94548.34;;;35.61;27.17
73332;BME280;61560;33.718;73.040;2023-05-29T03:08:06;94549.53;;;35.75;27.01
73332;BME280;61560;33.718;73.040;2023-05-29T03:10:33;94554.13;;;35.87;27.27
73332;BME280;61560;33.718;73.040;2023-05-29T03:13:00;94549.47;;;35.99;27.29
73332;BME280;61560;33.718;73.040;2023-05-29T03:15:27;94553.31;;;36.11;26.77
73332;BME280;61560;33.718;73.040;2023-05-29T03:17:54;94554.25;;;36.14;26.61
73332;BME280;61560;33.718;73.040;2023-05-29T03:20:25;94555.66;;;36.05;27.58
73332;BME280;61560;33.718;73.040;2023-05-29T03:22:56;94555.16;;;36.16;27.68
73332;BME280;61560;33.718;73.040;2023-05-29T03:25:23;94551.13;;;36.19;26.36
73332;BME280;61560;33.718;73.040;2023-05-29T03:27:51;94557.38;;;36.08;26.50
73332;BME280;61560;33.718;73.040;2023-05-29T03:30:19;94553.97;;;36.37;26.52
73332;BME280;61560;33.718;73.040;2023-05-29T03:32:48;94547.88;;;36.67;26.15
73332;BME280;61560;33.718;73.040;2023-05-29T03:35:19;94560.44;;;37.08;25.52
73332;BME280;61560;33.718;73.040;2023-05-29T03:37:47;94554.66;;;37.25;25.48
73332;BME280;61560;33.718;73.040;2023-05-29T03:40:14;94547.81;;;37.11;25.24
73332;BME280;61560;33.718;73.040;2023-05-29T03:42:42;94557.31;;;37.13;25.55
73332;BME280;61560;33.718;73.040;2023-05-29T03:45:09;94556.75;;;37.24;25.14
73332;BME280;61560;33.718;73.040;2023-05-29T03:47:40;94553.84;;;37.41;24.95
73332;BME280;61560;33.718;73.040;2023-05-29T03:50:07;94551.88;;;37.44;25.40
73332;BME280;61560;33.718;73.040;2023-05-29T03:52:36;94554.75;;;37.53;25.78
73332;BME280;61560;33.718;73.040;2023-05-29T03:55:07;94548.75;;;37.59;24.84
73332;BME280;61560;33.718;73.040;2023-05-29T03:57:36;94556.59;;;37.78;24.61
73332;BME280;61560;33.718;73.040;2023-05-29T04:00:03;94553.22;;;38.17;24.57
73332;BME280;61560;33.718;73.040;2023-05-29T04:02:39;94552.91;;;38.71;23.86
73332;BME280;61560;33.718;73.040;2023-05-29T04:05:07;94549.88;;;39.28;23.20
73332;BME280;61560;33.718;73.040;2023-05-29T04:07:41;94551.47;;;40.02;21.90
73332;BME280;61560;33.718;73.040;2023-05-29T04:10:08;94546.09;;;40.83;21.37
73332;BME280;61560;33.718;73.040;2023-05-29T04:12:35;94535.03;;;41.82;19.34
73332;BME280;61560;33.718;73.040;2023-05-29T04:15:03;94533.22;;;42.85;18.02
73332;BME280;61560;33.718;73.040;2023-05-29T04:17:30;94541.88;;;43.62;17.33
73332;BME280;61560;33.718;73.040;2023-05-29T04:19:57;94541.25;;;44.05;18.12
73332;BME280;61560;33.718;73.040;2023-05-29T04:22:28;94538.22;;;44.59;17.36
73332;BME280;61560;33.718;73.040;2023-05-29T04:24:56;94537.06;;;44.93;17.68
73332;BME280;61560;33.718;73.040;2023-05-29T04:27:23;94530.88;;;45.30;17.79
73332;BME280;61560;33.718;73.040;2023-05-29T04:29:50;94529.56;;;45.64;16.86
73332;BME280;61560;33.718;73.040;2023-05-29T04:32:17;94533.59;;;45.73;16.99
73332;BME280;61560;33.718;73.040;2023-05-29T04:34:44;94521.16;;;45.70;15.91
73332;BME280;61560;33.718;73.040;2023-05-29T04:37:15;94517.44;;;45.52;16.30
73332;BME280;61560;33.718;73.040;2023-05-29T04:39:43;94516.84;;;45.24;16.27
73332;BME280;61560;33.718;73.040;2023-05-29T04:42:13;94512.75;;;45.14;16.37
73332;BME280;61560;33.718;73.040;2023-05-29T04:44:41;94512.13;;;45.15;16.60
73332;BME280;61560;33.718;73.040;2023-05-29T04:47:09;94506.38;;;45.02;16.54
73332;BME280;61560;33.718;73.040;2023-05-29T04:49:39;94501.63;;;45.08;17.16
73332;BME280;61560;33.718;73.040;2023-05-29T04:52:06;94509.69;;;45.25;16.02
73332;BME280;61560;33.718;73.040;2023-05-29T04:54:34;94503.25;;;45.42;16.18
73332;BME280;61560;33.718;73.040;2023-05-29T04:57:01;94500.19;;;45.38;17.91
73332;BME280;61560;33.718;73.040;2023-05-29T04:59:33;94496.41;;;45.05;18.11
73332;BME280;61560;33.718;73.040;2023-05-29T05:02:01;94491.22;;;44.43;19.04
73332;BME280;61560;33.718;73.040;2023-05-29T05:04:28;94490.34;;;43.84;19.63
73332;BME280;61560;33.718;73.040;2023-05-29T05:06:56;94493.19;;;43.30;19.76
73332;BME280;61560;33.718;73.040;2023-05-29T05:09:27;94492.03;;;42.57;21.23
73332;BME280;61560;33.718;73.040;2023-05-29T05:11:54;94492.34;;;42.01;21.13
73332;BME280;61560;33.718;73.040;2023-05-29T05:14:23;94494.44;;;41.52;20.43
73332;BME280;61560;33.718;73.040;2023-05-29T05:16:50;94491.53;;;41.06;21.53
73332;BME280;61560;33.718;73.040;2023-05-29T05:19:17;94498.41;;;40.57;22.17
73332;BME280;61560;33.718;73.040;2023-05-29T05:21:44;94501.78;;;40.21;22.83
73332;BME280;61560;33.718;73.040;2023-05-29T05:24:12;94504.75;;;39.80;22.22
73332;BME280;61560;33.718;73.040;2023-05-29T05:26:40;94501.63;;;39.24;24.00
73332;BME280;61560;33.718;73.040;2023-05-29T05:29:07;94497.41;;;38.76;23.91
73332;BME280;61560;33.718;73.040;2023-05-29T05:31:37;94495.97;;;38.36;24.35
73332;BME280;61560;33.718;73.040;2023-05-29T05:34:04;94490.28;;;37.98;25.24
73332;BME280;61560;33.718;73.040;2023-05-29T05:36:33;94488.75;;;37.68;26.07
73332;BME280;61560;33.718;73.040;2023-05-29T05:39:07;94495.75;;;37.48;25.76
73332;BME280;61560;33.718;73.040;2023-05-29T05:41:34;94485.78;;;37.30;26.45
73332;BME280;61560;33.718;73.040;2023-05-29T05:44:02;94489.97;;;37.20;25.55
73332;BME280;61560;33.718;73.040;2023-05-29T05:46:37;94488.88;;;37.06;25.76
73332;BME280;61560;33.718;73.040;2023-05-29T05:49:04;94488.63;;;36.84;26.31
73332;BME280;61560;33.718;73.040;2023-05-29T05:51:32;94477.41;;;36.60;26.54
73332;BME280;61560;33.718;73.040;2023-05-29T05:53:59;94485.88;;;36.50;25.46
73332;BME280;61560;33.718;73.040;2023-05-29T05:56:27;94487.41;;;36.51;25.24
73332;BME280;61560;33.718;73.040;2023-05-29T05:58:54;94483.97;;;36.53;25.24
73332;BME280;61560;33.718;73.040;2023-05-29T06:01:21;94485.88;;;36.50;24.81
73332;BME280;61560;33.718;73.040;2023-05-29T06:03:50;94488.59;;;36.48;25.21
73332;BME280;61560;33.718;73.040;2023-05-29T06:06:17;94483.56;;;36.39;25.33
73332;BME280;61560;33.718;73.040;2023-05-29T06:08:44;94488.25;;;36.44;25.33
73332;BME280;61560;33.718;73.040;2023-05-29T06:11:12;94486.81;;;36.53;24.63
73332;BME280;61560;33.718;73.040;2023-05-29T06:13:43;94493.91;;;36.61;24.25
73332;BME280;61560;33.718;73.040;2023-05-29T06:16:17;94480.81;;;36.58;25.01
73332;BME280;61560;33.718;73.040;2023-05-29T06:18:46;94484.88;;;36.55;25.20
73332;BME280;61560;33.718;73.040;2023-05-29T06:21:13;94484.28;;;36.57;25.23
73332;BME280;61560;33.718;73.040;2023-05-29T06:23:47;94480.31;;;36.43;25.92
73332;BME280;61560;33.718;73.040;2023-05-29T06:26:14;94483.56;;;36.39;25.82
73332;BME280;61560;33.718;73.040;2023-05-29T06:28:42;94479.88;;;36.29;25.35
73332;BME280;61560;33.718;73.040;2023-05-29T06:31:09;94475.72;;;36.13;25.96
73332;BME280;61560;33.718;73.040;2023-05-29T06:33:36;94471.31;;;35.85;26.12
73332;BME280;61560;33.718;73.040;2023-05-29T06:36:05;94484.97;;;35.70;26.32
73332;BME280;61560;33.718;73.040;2023-05-29T06:38:34;94479.94;;;35.61;26.39
73332;BME280;61560;33.718;73.040;2023-05-29T06:41:05;94474.78;;;35.42;27.60
73332;BME280;61560;33.718;73.040;2023-05-29T06:43:34;94479.53;;;35.22;27.06
73332;BME280;61560;33.718;73.040;2023-05-29T06:46:03;94478.84;;;35.14;27.74
73332;BME280;61560;33.718;73.040;2023-05-29T06:48:33;94464.34;;;35.03;27.31
73332;BME280;61560;33.718;73.040;2023-05-29T06:51:01;94462.34;;;34.88;27.94
73332;BME280;61560;33.718;73.040;2023-05-29T06:54:00;94458.53;;;34.69;29.29
73332;BME280;61560;33.718;73.040;2023-05-29T06:56:29;94449.50;;;34.55;29.45
73332;BME280;61560;33.718;73.040;2023-05-29T06:58:56;94455.66;;;34.44;29.24
73332;BME280;61560;33.718;73.040;2023-05-29T07:01:57;94448.66;;;34.37;27.87
73332;BME280;61560;33.718;73.040;2023-05-29T07:04:27;94445.91;;;34.22;27.15
73332;BME280;61560;33.718;73.040;2023-05-29T07:06:53;94447.75;;;34.03;27.56
73332;BME280;61560;33.718;73.040;2023-05-29T07:09:20;94448.94;;;33.84;27.48
73332;BME280;61560;33.718;73.040;2023-05-29T07:11:48;94432.13;;;33.71;26.68
73332;BME280;61560;33.718;73.040;2023-05-29T07:14:15;94448.06;;;33.67;27.38
73332;BME280;61560;33.718;73.040;2023-05-29T07:16:42;94439.38;;;33.57;26.17
73332;BME280;61560;33.718;73.040;2023-05-29T07:19:09;94455.47;;;33.47;28.33
73332;BME280;61560;33.718;73.040;2023-05-29T07:21:37;94467.47;;;33.23;30.12
73332;BME280;61560;33.718;73.040;2023-05-29T07:24:05;94480.94;;;33.00;30.94
73332;BME280;61560;33.718;73.040;2023-05-29T07:26:34;94480.91;;;32.77;31.44
73332;BME280;61560;33.718;73.040;2023-05-29T07:29:03;94483.72;;;32.62;31.83
73332;BME280;61560;33.718;73.040;2023-05-29T07:31:30;94488.81;;;32.49;31.52
73332;BME280;61560;33.718;73.040;2023-05-29T07:33:57;94505.38;;;32.37;32.68
73332;BME280;61560;33.718;73.040;2023-05-29T07:36:30;94513.69;;;32.27;32.89
73332;BME280;61560;33.718;73.040;2023-05-29T07:39:00;94520.06;;;32.05;33.25
73332;BME280;61560;33.718;73.040;2023-05-29T07:41:26;94516.56;;;31.92;33.11
73332;BME280;61560;33.718;73.040;2023-05-29T07:43:55;94513.66;;;31.77;33.78
73332;BME280;61560;33.718;73.040;2023-05-29T07:46:23;94503.78;;;31.63;33.76
73332;BME280;61560;33.718;73.040;2023-05-29T07:48:57;94518.06;;;31.49;34.44
73332;BME280;61560;33.718;73.040;2023-05-29T07:51:24;94543.41;;;31.34;34.51
73332;BME280;61560;33.718;73.040;2023-05-29T07:53:51;94564.56;;;31.13;34.76
73332;BME280;61560;33.718;73.040;2023-05-29T07:56:19;94585.22;;;31.00;34.77
73332;BME280;61560;33.718;73.040;2023-05-29T07:58:48;94581.38;;;30.77;34.57
73332;BME280;61560;33.718;73.040;2023-05-29T08:01:15;94564.94;;;30.55;34.85
73332;BME280;61560;33.718;73.040;2023-05-29T08:03:42;94581.97;;;30.42;34.74
73332;BME280;61560;33.718;73.040;2023-05-29T08:06:25;94597.19;;;30.39;35.12
73332;BME280;61560;33.718;73.040;2023-05-29T08:08:52;94616.34;;;30.33;35.37
73332;BME280;61560;33.718;73.040;2023-05-29T08:11:21;94647.84;;;30.24;34.63
73332;BME280;61560;33.718;73.040;2023-05-29T08:13:49;94682.75;;;30.00;34.59
73332;BME280;61560;33.718;73.040;2023-05-29T08:16:17;94716.63;;;29.74;34.57
73332;BME280;61560;33.718;73.040;2023-05-29T08:18:44;94766.66;;;29.42;35.05
73332;BME280;61560;33.718;73.040;2023-05-29T08:21:11;94799.94;;;29.11;35.03
73332;BME280;61560;33.718;73.040;2023-05-29T08:23:38;94839.19;;;28.91;36.31
73332;BME280;61560;33.718;73.040;2023-05-29T08:26:05;94854.34;;;28.69;37.04
73332;BME280;61560;33.718;73.040;2023-05-29T08:28:32;94869.25;;;28.40;37.90
73332;BME280;61560;33.718;73.040;2023-05-29T08:31:00;94881.44;;;28.24;39.26
73332;BME280;61560;33.718;73.040;2023-05-29T08:33:27;94864.00;;;28.01;40.50
73332;BME280;61560;33.718;73.040;2023-05-29T08:35:57;94844.03;;;27.94;40.63
73332;BME280;61560;33.718;73.040;2023-05-29T08:38:25;94834.94;;;27.82;40.63
73332;BME280;61560;33.718;73.040;2023-05-29T08:40:57;94848.16;;;27.63;41.34
73332;BME280;61560;33.718;73.040;2023-05-29T08:43:36;94839.28;;;27.53;41.60
73332;BME280;61560;33.718;73.040;2023-05-29T08:46:04;94834.44;;;27.48;42.13
73332;BME280;61560;33.718;73.040;2023-05-29T08:48:36;94818.13;;;27.41;42.63
73332;BME280;61560;33.718;73.040;2023-05-29T08:51:05;94820.47;;;27.37;42.80
73332;BME280;61560;33.718;73.040;2023-05-29T08:53:34;94829.19;;;27.34;43.22
73332;BME280;61560;33.718;73.040;2023-05-29T08:56:01;94817.94;;;27.34;43.08
73332;BME280;61560;33.718;73.040;2023-05-29T08:58:29;94794.66;;;27.28;43.34
73332;BME280;61560;33.718;73.040;2023-05-29T09:00:56;94761.97;;;27.25;43.50
73332;BME280;61560;33.718;73.040;2023-05-29T09:03:24;94720.34;;;27.18;44.12
73332;BME280;61560;33.718;73.040;2023-05-29T09:05:51;94702.28;;;27.08;44.39
73332;BME280;61560;33.718;73.040;2023-05-29T09:08:19;94713.56;;;27.02;44.85
73332;BME280;61560;33.718;73.040;2023-05-29T09:10:46;94722.78;;;26.97;47.43
73332;BME280;61560;33.718;73.040;2023-05-29T09:13:13;94742.31;;;26.84;48.08
73332;BME280;61560;33.718;73.040;2023-05-29T09:15:41;94722.94;;;26.75;49.12
73332;BME280;61560;33.718;73.040;2023-05-29T09:18:09;94706.94;;;26.59;49.17
73332;BME280;61560;33.718;73.040;2023-05-29T09:20:37;94724.31;;;26.57;48.76
73332;BME280;61560;33.718;73.040;2023-05-29T09:23:06;94744.00;;;26.52;48.05
73332;BME280;61560;33.718;73.040;2023-05-29T09:25:37;94740.25;;;26.38;48.02
73332;BME280;61560;33.718;73.040;2023-05-29T09:28:08;94760.88;;;26.46;47.41
73332;BME280;61560;33.718;73.040;2023-05-29T09:30:43;94766.03;;;26.37;48.01
73332;BME280;61560;33.718;73.040;2023-05-29T09:33:13;94769.34;;;26.41;47.76
73332;BME280;61560;33.718;73.040;2023-05-29T09:38:10;94787.22;;;26.43;48.80
73332;BME280;61560;33.718;73.040;2023-05-29T09:40:38;94791.00;;;26.51;48.50
73332;BME280;61560;33.718;73.040;2023-05-29T09:43:09;94803.25;;;26.54;48.77
73332;BME280;61560;33.718;73.040;2023-05-29T09:45:40;94820.38;;;26.56;48.43
73332;BME280;61560;33.718;73.040;2023-05-29T09:48:16;94810.16;;;26.53;48.35
73332;BME280;61560;33.718;73.040;2023-05-29T09:50:45;94814.75;;;26.50;48.74
73332;BME280;61560;33.718;73.040;2023-05-29T09:53:24;94821.94;;;26.40;48.96
73332;BME280;61560;33.718;73.040;2023-05-29T09:55:55;94820.19;;;26.37;48.63
73332;BME280;61560;33.718;73.040;2023-05-29T09:58:23;94811.50;;;26.30;49.15
73332;BME280;61560;33.718;73.040;2023-05-29T10:00:51;94814.06;;;26.28;49.75
73332;BME280;61560;33.718;73.040;2023-05-29T10:03:19;94813.56;;;26.24;49.74
73332;BME280;61560;33.718;73.040;2023-05-29T10:05:50;94803.13;;;26.19;49.90
73332;BME280;61560;33.718;73.040;2023-05-29T10:08:20;94806.72;;;26.03;50.19
73332;BME280;61560;33.718;73.040;2023-05-29T10:10:56;94798.78;;;26.01;50.64
73332;BME280;61560;33.718;73.040;2023-05-29T10:13:34;94801.88;;;25.92;51.36
73332;BME280;61560;33.718;73.040;2023-05-29T10:16:08;94801.38;;;25.82;51.71
73332;BME280;61560;33.718;73.040;2023-05-29T10:18:39;94793.22;;;25.79;51.57
73332;BME280;61560;33.718;73.040;2023-05-29T10:21:12;94798.56;;;25.82;51.06
73332;BME280;61560;33.718;73.040;2023-05-29T10:23:42;94803.19;;;25.80;52.92
73332;BME280;61560;33.718;73.040;2023-05-29T10:26:18;94792.47;;;25.78;53.70
73332;BME280;61560;33.718;73.040;2023-05-29T10:29:12;94786.09;;;25.78;56.10
73332;BME280;61560;33.718;73.040;2023-05-29T10:40:06;94783.28;;;25.17;58.39
73332;BME280;61560;33.718;73.040;2023-05-29T10:42:44;94774.09;;;25.16;58.75
73332;BME280;61560;33.718;73.040;2023-05-29T10:50:56;94734.34;;;25.12;56.31
73332;BME280;61560;33.718;73.040;2023-05-29T10:53:24;94724.66;;;24.97;56.71
73332;BME280;61560;33.718;73.040;2023-05-29T10:55:55;94729.69;;;24.71;56.96
73332;BME280;61560;33.718;73.040;2023-05-29T10:58:23;94723.03;;;24.46;57.81
73332;BME280;61560;33.718;73.040;2023-05-29T11:00:54;94730.41;;;24.44;56.95
73332;BME280;61560;33.718;73.040;2023-05-29T11:03:24;94731.31;;;24.18;58.88
73332;BME280;61560;33.718;73.040;2023-05-29T11:08:43;94719.88;;;24.16;58.60
73332;BME280;61560;33.718;73.040;2023-05-29T11:11:15;94715.81;;;24.23;57.24
73332;BME280;61560;33.718;73.040;2023-05-29T11:13:57;94694.97;;;24.29;57.63
73332;BME280;61560;33.718;73.040;2023-05-29T11:18:57;94676.16;;;24.47;56.90
73332;BME280;61560;33.718;73.040;2023-05-29T11:21:34;94681.28;;;24.54;56.05
73332;BME280;61560;33.718;73.040;2023-05-29T11:24:05;94676.44;;;24.60;58.31
73332;BME280;61560;33.718;73.040;2023-05-29T11:26:34;94670.59;;;24.58;57.36
73332;BME280;61560;33.718;73.040;2023-05-29T11:29:04;94671.63;;;24.66;56.26
73332;BME280;61560;33.718;73.040;2023-05-29T11:31:39;94660.97;;;24.75;56.66
73332;BME280;61560;33.718;73.040;2023-05-29T11:34:10;94657.91;;;24.84;56.28
73332;BME280;61560;33.718;73.040;2023-05-29T11:36:41;94653.31;;;24.92;56.19
73332;BME280;61560;33.718;73.040;2023-05-29T11:39:09;94653.59;;;25.00;53.57
73332;BME280;61560;33.718;73.040;2023-05-29T11:41:37;94654.84;;;24.99;54.19
73332;BME280;61560;33.718;73.040;2023-05-29T11:44:04;94640.31;;;25.11;54.46
73332;BME280;61560;33.718;73.040;2023-05-29T11:46:35;94639.03;;;25.24;54.39
73332;BME280;61560;33.718;73.040;2023-05-29T11:49:02;94636.19;;;25.29;53.57
73332;BME280;61560;33.718;73.040;2023-05-29T11:51:29;94628.03;;;25.37;52.85
73332;BME280;61560;33.718;73.040;2023-05-29T11:53:56;94631.38;;;25.41;52.18
73332;BME280;61560;33.718;73.040;2023-05-29T11:56:26;94638.72;;;25.49;53.11
73332;BME280;61560;33.718;73.040;2023-05-29T11:58:55;94642.31;;;25.44;53.06
73332;BME280;61560;33.718;73.040;2023-05-29T12:01:24;94649.19;;;25.43;52.99
73332;BME280;61560;33.718;73.040;2023-05-29T12:03:52;94644.34;;;25.38;52.97
73332;BME280;61560;33.718;73.040;2023-05-29T12:06:35;94638.25;;;25.34;53.50
73332;BME280;61560;33.718;73.040;2023-05-29T12:09:05;94642.59;;;25.30;54.34
73332;BME280;61560;33.718;73.040;2023-05-29T12:11:32;94639.53;;;25.22;55.48
73332;BME280;61560;33.718;73.040;2023-05-29T12:14:01;94640.81;;;25.27;56.95
73332;BME280;61560;33.718;73.040;2023-05-29T12:16:31;94635.97;;;25.33;55.83
73332;BME280;61560;33.718;73.040;2023-05-29T12:18:59;94625.47;;;25.33;55.13
73332;BME280;61560;33.718;73.040;2023-05-29T12:21:27;94627.03;;;25.34;55.26
73332;BME280;61560;33.718;73.040;2023-05-29T12:23:54;94619.13;;;25.33;54.99
73332;BME280;61560;33.718;73.040;2023-05-29T12:26:24;94595.13;;;25.37;55.15
73332;BME280;61560;33.718;73.040;2023-05-29T12:28:52;94594.13;;;25.40;54.74
73332;BME280;61560;33.718;73.040;2023-05-29T12:31:29;94583.16;;;25.48;54.26
73332;BME280;61560;33.718;73.040;2023-05-29T12:34:08;94570.44;;;25.47;54.60
73332;BME280;61560;33.718;73.040;2023-05-29T12:36:39;94558.94;;;25.50;53.81
73332;BME280;61560;33.718;73.040;2023-05-29T12:39:07;94555.34;;;25.50;54.72
73332;BME280;61560;33.718;73.040;2023-05-29T12:41:38;94543.16;;;25.42;54.25
73332;BME280;61560;33.718;73.040;2023-05-29T12:44:06;94539.59;;;25.41;54.17
73332;BME280;61560;33.718;73.040;2023-05-29T12:46:39;94518.69;;;25.37;54.40
73332;BME280;61560;33.718;73.040;2023-05-29T12:51:41;94506.19;;;25.38;54.13
73332;BME280;61560;33.718;73.040;2023-05-29T12:54:14;94503.63;;;25.40;53.62
73332;BME280;61560;33.718;73.040;2023-05-29T12:56:42;94506.19;;;25.43;52.79
73332;BME280;61560;33.718;73.040;2023-05-29T12:59:10;94508.69;;;25.52;52.62
73332;BME280;61560;33.718;73.040;2023-05-29T13:01:38;94500.00;;;25.56;51.66
73332;BME280;61560;33.718;73.040;2023-05-29T13:04:05;94513.25;;;25.61;51.09
73332;BME280;61560;33.718;73.040;2023-05-29T13:06:38;94508.66;;;25.63;50.59
73332;BME280;61560;33.718;73.040;2023-05-29T13:09:07;94502.22;;;25.68;51.04
73332;BME280;61560;33.718;73.040;2023-05-29T13:11:35;94505.28;;;25.70;51.33
73332;BME280;61560;33.718;73.040;2023-05-29T13:14:02;94493.28;;;25.70;51.67
73332;BME280;61560;33.718;73.040;2023-05-29T13:16:29;94480.56;;;25.69;51.68
73332;BME280;61560;33.718;73.040;2023-05-29T13:18:56;94486.41;;;25.71;52.28
73332;BME280;61560;33.718;73.040;2023-05-29T13:21:23;94474.69;;;25.67;52.45
73332;BME280;61560;33.718;73.040;2023-05-29T13:23:50;94475.47;;;25.67;52.42
73332;BME280;61560;33.718;73.040;2023-05-29T13:26:17;94471.91;;;25.67;52.84
73332;BME280;61560;33.718;73.040;2023-05-29T13:28:44;94463.75;;;25.63;52.15